Tiempo atmosférico en la estación meteorológica de Cabo de Gata, Almería (42 m.)



Fecha
DESCASC
Temp. máxima en grados centígrados (hora)
DESCASC
Temp. mínima en grados centígrados (hora)
DESCASC
Temp. media en grados centígrados
DESCASC
Racha de viento máxima en m/sg (hora)
DESCASC
Velocidad máxima media en intervalos de 10 minutos(hora)
DESCASC
Precipitaciones diarias en mm
DESCASC
Precipitaciones de 00:00 a 06:00 en mm
DESCASC
Precipitaciones de 06:00 a 12:00 en mm
DESCASC
Precipitaciones de 12:00 a 18:00 en mm
DESCASC
Precipitaciones de 18:00 a 24:00 en mm
DESCASC
11-12-2019 18.3 (13:20) 13.7 (08:10) 16 10.83 (20:50) 7.5 (14:10) 0 0 0 0 0
10-12-2019 19.2 (13:40) 14.7 (01:10) 17 10.28 (19:40) 6.94 (19:40) 0 0 0 0 0
09-12-2019 20.4 (12:40) 13.7 (06:10) 17 8.33 (21:20) 6.11 (20:00) 0 0 0 0 0
08-12-2019 17.7 (13:40) 13.9 (00:00) 15.8 12.22 (19:40) 7.5 (19:40) 0 0 0 0 0
07-12-2019 17.1 (11:40) 14.6 (00:00) 15.9 13.61 (02:30) 8.61 (02:30) 0 0 0 0 0
06-12-2019 17.6 (12:10) 15.1 (00:00) 16.4 20.56 (02:10) 13.06 (01:40) 0 0 0 0 0
05-12-2019 15.8 (14:50) 13.6 (00:00) 14.7 19.72 (23:10) 11.94 (22:40) 0 0 0 0 0
04-12-2019 18.1 (13:20) 12.7 (00:00) 15.4 14.17 (14:50) 8.89 (15:10) 0 0 0 0 0
03-12-2019 15.2 (03:00) 12 (00:00) 13.6 25.56 (06:30) 11.94 (03:20) 45.2 5.2 31.2 8.8 0
02-12-2019 15.6 (00:00) 14.1 (00:00) 14.9 15 (15:50) 8.89 (15:50) 4.8 0 0 0 4.8
01-12-2019 18.2 (11:40) 15.4 (00:00) 16.8 15 (16:30) 10 (17:40) -- -- 0 0 0
30-11-2019 19.8 (12:50) 14.2 (00:00) 17 9.72 (23:10) 6.67 (23:50) -- -- -- -- --
29-11-2019 19.1 (13:40) 13.7 (00:00) 16.4 5.56 (00:20) 4.44 (11:00) -- -- -- -- --
28-11-2019 19.7 (13:30) 14.1 (00:00) 16.9 6.67 (20:20) 4.72 (21:20) -- -- -- -- --
27-11-2019 18.7 (13:30) 14.8 (00:00) 16.8 13.89 (00:30) 11.11 (00:30) -- -- -- -- --
26-11-2019 19.8 (13:20) 14.7 (00:00) 17.2 10 (23:10) 6.67 (21:20) -- -- -- -- --
25-11-2019 18.2 (10:30) 12.6 (00:00) 15.4 7.78 (12:20) 5 (12:20) -- -- -- -- --
24-11-2019 18.7 (12:00) 13.4 (00:00) 16.1 18.61 (01:00) 10 (01:00) -- -- -- -- --
23-11-2019 17.6 (11:40) 15.1 (00:00) 16.4 25.56 (16:10) 18.61 (16:00) 0 0 0 0 0
22-11-2019 17.2 (21:10) 14.8 (00:00) 16 16.67 (23:00) 10 (23:00) 0.2 0 0.2 0 0
21-11-2019 16 (11:00) 14.3 (00:00) 15.2 13.33 (03:30) 8.33 (03:30) 0 0 0 0 0
20-11-2019 17.9 (13:00) 12.3 (00:00) 15.1 11.39 (16:10) 6.39 (22:30) 0 0 0 0 0
19-11-2019 17.5 (13:30) 13 (00:00) 15.3 7.5 (19:00) 5.83 (19:00) 0 0 0 0 0
18-11-2019 17.4 (12:40) 12.5 (00:00) 14.9 21.94 (03:40) 13.89 (06:40) 3.8 0.2 3.6 0 0
17-11-2019 18 (12:00) 11.6 (00:00) 14.8 22.22 (23:00) 13.61 (23:00) 0 0 0 0 0
16-11-2019 17.6 (11:50) 11.1 (00:00) 14.4 13.89 (05:30) 8.89 (20:20) 0 0 0 0 0
15-11-2019 17.3 (11:40) 12 (00:00) 14.6 16.67 (03:40) 11.67 (04:00) 0 0 0 0 0

Gráficas

Temp. máximas Temp. mínimas Temp. medias Precipitaciones Rachas de viento máximas Velocidades máximas media en intervalos de 10 minutos

Datos horarios

Fecha y hora oficial Temperatura (ºC) Velocidad del viento (km/h) Dirección del viento Racha (km/h) Dirección de racha Precipitación (mm) Presión (hPa) Tendencia (hPa) Humedad (%)
2019-12-14 23:00:00 15.2 5 Oeste 14 Oeste 0 -- -- 85
2019-12-14 22:00:00 15.3 6 Oeste 17 Oeste 0 -- -- 85
2019-12-14 21:00:00 15.3 11 Oeste 17 Oeste 0 -- -- 84
2019-12-14 20:00:00 15.5 8 Oeste 21 Sudoeste 0 -- -- 83
2019-12-14 19:00:00 15.6 12 Oeste 31 Oeste 0 -- -- 82
2019-12-14 18:00:00 15.9 17 Oeste 25 Oeste 0 -- -- 82
2019-12-14 17:00:00 16.4 7 Oeste 15 Sudeste 0 -- -- 81
2019-12-14 16:00:00 16.5 12 Sudeste 22 Este 0 -- -- 79
2019-12-14 15:00:00 16.6 15 Sudeste 23 Sudeste 0 -- -- 79
2019-12-14 14:00:00 17.2 18 Este 23 Sudeste 0 -- -- 75
2019-12-14 13:00:00 18.2 10 Sudeste 15 Sudeste 0 -- -- 70
2019-12-14 12:00:00 17.7 3 Oeste 16 Noroeste 0 -- -- 75
2019-12-14 11:00:00 16.3 7 Oeste 13 Noroeste 0 -- -- 81
2019-12-14 10:00:00 16.3 3 Sudoeste 18 Este 0 -- -- 82
2019-12-14 09:00:00 15.4 11 Este 15 Este 0 -- -- 83
2019-12-14 08:00:00 14.9 7 Este 12 Este 0 -- -- 82
2019-12-14 07:00:00 14.4 0 Calma 16 Norte 0 -- -- 82
2019-12-14 06:00:00 14.9 9 Norte 18 Noroeste 0 -- -- 80
2019-12-14 05:00:00 14.8 7 Oeste 15 Norte 0 -- -- 79
2019-12-14 04:00:00 14.8 6 Noroeste 16 Noroeste 0 -- -- 76
2019-12-14 03:00:00 15.9 3 Sur 18 Noroeste 0 -- -- 71
2019-12-14 02:00:00 16 4 Noroeste 19 Noroeste 0 -- -- 67
2019-12-14 01:00:00 15.9 11 Norte 20 Norte 0 -- -- 74
2019-12-14 00:00:00 15.3 5 Norte 21 Noroeste 0 -- -- 79
2019-12-13 23:00:00 16.3 14 Noroeste 23 Noroeste 0 -- -- 77
2019-12-13 22:00:00 16.5 6 Norte 25 Sur 0 -- -- 71
2019-12-13 21:00:00 17.4 10 Sudeste 26 Oeste 0 -- -- 71
2019-12-13 20:00:00 16.9 11 Sur 30 Sudoeste 0 -- -- 75
2019-12-13 19:00:00 17 8 Sur 32 Noroeste 0 -- -- 74
2019-12-13 18:00:00 16.9 10 Oeste 35 Oeste 0 -- -- 75
2019-12-13 17:00:00 17 12 Oeste 33 Oeste 0 -- -- 74
2019-12-13 16:00:00 17 15 Oeste 32 Oeste 0 -- -- 73
2019-12-13 15:00:00 17.1 18 Oeste 38 Sudoeste 0 -- -- 73
2019-12-13 14:00:00 17.1 23 Oeste 69 Oeste 0 -- -- 73
2019-12-13 13:00:00 16.9 36 Oeste 66 Oeste 0 -- -- 75
2019-12-13 12:00:00 16.6 45 Oeste 75 Oeste 0 -- -- 80
2019-12-13 11:00:00 16.3 44 Oeste 73 Oeste 0 -- -- 83
2019-12-13 10:00:00 16.2 32 Oeste 55 Oeste 0 -- -- 84
2019-12-13 09:00:00 16 29 Oeste 58 Oeste 0 -- -- 84
2019-12-13 08:00:00 15.9 39 Oeste 64 Oeste 0 -- -- 84
2019-12-13 07:00:00 16 33 Oeste 56 Sudoeste 0 -- -- 83
2019-12-13 06:00:00 15.9 35 Oeste 64 Oeste 0 -- -- 82
2019-12-13 05:00:00 16 36 Oeste 67 Oeste 0 -- -- 79
2019-12-13 04:00:00 15.9 37 Oeste 55 Oeste 0 -- -- 77
2019-12-13 03:00:00 15.2 21 Oeste 48 Sudoeste 0 -- -- 75
2019-12-13 02:00:00 15.8 31 Oeste 50 Oeste 0 -- -- 75
2019-12-13 01:00:00 15.8 31 Oeste 51 Oeste 0 -- -- 74
2019-12-13 00:00:00 15.4 23 Oeste 53 Oeste 0 -- -- 73
2019-12-12 23:00:00 15.9 24 Oeste 53 Oeste 0 -- -- 71
2019-12-12 22:00:00 15.6 10 Noroeste 28 Oeste 0 -- -- 66
2019-12-12 21:00:00 15.8 9 Oeste 27 Oeste 0 -- -- 68
2019-12-12 20:00:00 16 8 Sur 22 Oeste 0 -- -- 65
2019-12-12 19:00:00 15.9 12 Sudoeste 31 Sudoeste 0 -- -- 66
2019-12-12 18:00:00 16 10 Oeste 30 Oeste 0 -- -- 67
2019-12-12 17:00:00 15.9 9 Sudeste 26 Oeste 0 -- -- 64
2019-12-12 16:00:00 16.5 6 Sudeste 13 Sur 0 -- -- 62
2019-12-12 15:00:00 16.8 4 Sudeste 14 Sudoeste 0 -- -- 61
2019-12-12 14:00:00 17.3 2 Oeste 14 Noroeste 0 -- -- 54
2019-12-12 13:00:00 16.6 9 Noroeste 16 Oeste 0 -- -- 67
2019-12-12 12:00:00 16.3 6 Oeste 15 Noroeste 0 -- -- 72
2019-12-12 11:00:00 15.1 6 Oeste 14 Noroeste 0 -- -- 75
2019-12-12 10:00:00 14.5 3 Noroeste 14 Noroeste 0 -- -- 74
2019-12-12 09:00:00 14.6 5 Nordeste 11 Norte 0 -- -- 72
2019-12-12 08:00:00 14.7 3 Nordeste 10 Norte 0 -- -- 73
2019-12-12 07:00:00 14.6 4 Norte 10 Noroeste 0 -- -- 74
2019-12-12 06:00:00 14.7 5 Norte 11 Norte 0 -- -- 75
2019-12-12 05:00:00 15.9 5 Sur 15 Este 0 -- -- 74
2019-12-12 04:00:00 15.7 6 Este 18 Este 0 -- -- 72
2019-12-12 03:00:00 15.7 8 Sudeste 14 Sur 0 -- -- 68
2019-12-12 02:00:00 15.1 4 Noroeste 18 Este 0 -- -- 66
2019-12-12 01:00:00 16.3 13 Este 27 Sudeste 0 -- -- 55
2019-12-12 00:00:00 16.1 13 Este 24 Este 0 -- -- 51
2019-12-11 23:00:00 16.6 17 Este 25 Este 0 -- -- 53
2019-12-11 22:00:00 17.2 9 Norte 31 Noroeste 0 -- -- 53
2019-12-11 21:00:00 17.2 15 Norte 39 Noroeste 0 -- -- 64
2019-12-11 20:00:00 16.5 5 Oeste 18 Sudoeste 0 -- -- 74
2019-12-11 19:00:00 16.9 11 Sudeste 19 Este 0 -- -- 77
2019-12-11 18:00:00 16.4 8 Sudeste 14 Este 0 -- -- 77
2019-12-11 17:00:00 16.2 3 Noroeste 17 Noroeste 0 -- -- 78
2019-12-11 16:00:00 16.5 10 Oeste 24 Noroeste 0 -- -- 79
2019-12-11 15:00:00 16.9 8 Oeste 38 Noroeste 0 -- -- 80
2019-12-11 14:00:00 17.8 17 Noroeste 32 Noroeste 0 -- -- 76
2019-12-11 13:00:00 18.2 8 Noroeste 18 Noroeste 0 -- -- 80
2019-12-11 12:00:00 17.5 8 Oeste 22 Noroeste 0 -- -- 85
2019-12-11 11:00:00 16.4 8 Noroeste 19 Noroeste 0 -- -- 88
2019-12-11 10:00:00 15.5 6 Noroeste 11 Noroeste 0 -- -- 89
2019-12-11 09:00:00 14.1 4 Noroeste 12 Norte 0 -- -- 89
2019-12-11 08:00:00 13.8 6 Norte 19 Noroeste 0 -- -- 89
2019-12-11 07:00:00 13.9 13 Noroeste 17 Noroeste 0 -- -- 88
2019-12-11 06:00:00 14.5 8 Noroeste 19 Noroeste 0 -- -- 89
2019-12-11 05:00:00 14.6 10 Noroeste 22 Noroeste 0 -- -- 89
2019-12-11 04:00:00 14.7 10 Noroeste 32 Noroeste 0 -- -- 89
2019-12-11 03:00:00 14.8 21 Noroeste 37 Noroeste 0 -- -- 89
2019-12-11 02:00:00 14.8 21 Noroeste 34 Noroeste 0 -- -- 89
2019-12-11 01:00:00 14.8 19 Noroeste 34 Noroeste 0 -- -- 88
2019-12-11 00:00:00 14.7 19 Noroeste 32 Noroeste 0 -- -- 88
2019-12-10 23:00:00 14.9 17 Noroeste 27 Noroeste 0 -- -- 87
2019-12-10 22:00:00 15.2 20 Noroeste 33 Noroeste 0 -- -- 87
2019-12-10 21:00:00 15.4 20 Noroeste 33 Noroeste 0 -- -- 86
2019-12-10 20:00:00 15.6 21 Noroeste 37 Noroeste 0 -- -- 85
2019-12-10 19:00:00 16 17 Noroeste 30 Noroeste 0 -- -- 84
2019-12-10 18:00:00 16.2 17 Noroeste 29 Noroeste 0 -- -- 83
2019-12-10 17:00:00 16.7 15 Noroeste 29 Noroeste 0 -- -- 80
2019-12-10 16:00:00 17.5 17 Oeste 25 Noroeste 0 -- -- 76
2019-12-10 15:00:00 17.9 14 Noroeste 23 Noroeste 0 -- -- 73
2019-12-10 14:00:00 18.8 13 Noroeste 22 Noroeste 0 -- -- 63
2019-12-10 13:00:00 18.8 11 Noroeste 23 Noroeste 0 -- -- 60
2019-12-10 12:00:00 18.4 14 Noroeste 23 Noroeste 0 -- -- 52
2019-12-10 11:00:00 17.9 10 Noroeste 19 Noroeste 0 -- -- 71
2019-12-10 10:00:00 16.7 6 Oeste 12 Noroeste 0 -- -- 75
2019-12-10 09:00:00 15.3 4 Norte 11 Este 0 -- -- 74
2019-12-10 08:00:00 15.7 8 Este 11 Este 0 -- -- 72
2019-12-10 07:00:00 15.4 4 Este 8 Este 0 -- -- 67
2019-12-10 06:00:00 16.2 5 Sudeste 16 Este 0 -- -- 60
2019-12-10 05:00:00 16.8 13 Este 23 Este 0 -- -- 57
2019-12-10 04:00:00 15.8 12 Este 21 Este 0 -- -- 69
2019-12-10 03:00:00 15.3 4 Oeste 16 Noroeste 0 -- -- 75
2019-12-10 02:00:00 15.3 4 Noroeste 20 Nordeste 0 -- -- 76
2019-12-10 01:00:00 15.1 4 Sudeste 21 Noroeste 0 -- -- 85
2019-12-10 00:00:00 15.5 11 Noroeste 27 Oeste 0 -- -- 86
2019-12-09 23:00:00 15.4 21 Noroeste 28 Noroeste 0 -- -- 88
2019-12-09 22:00:00 16.1 17 Noroeste 30 Noroeste 0 -- -- 87
2019-12-09 21:00:00 16.3 18 Noroeste 27 Noroeste 0 -- -- 86
2019-12-09 20:00:00 16.4 22 Noroeste 28 Noroeste 0 -- -- 85
2019-12-09 19:00:00 16.5 16 Noroeste 23 Noroeste 0 -- -- 83
2019-12-09 18:00:00 16.8 12 Oeste 17 Oeste 0 -- -- 81
2019-12-09 17:00:00 17.2 8 Oeste 13 Oeste 0 -- -- 79
2019-12-09 16:00:00 17.1 8 Oeste 18 Noroeste 0 -- -- 76
2019-12-09 15:00:00 18 12 Oeste 21 Noroeste 0 -- -- 75
2019-12-09 14:00:00 19.2 11 Noroeste 20 Oeste 0 -- -- 71
2019-12-09 13:00:00 20.4 7 Oeste 19 Noroeste 0 -- -- 68
2019-12-09 12:00:00 19.5 13 Noroeste 18 Noroeste 0 -- -- 64
2019-12-09 11:00:00 18.6 7 Oeste 9 Este 0 -- -- 72
2019-12-09 10:00:00 17.6 0 Calma 12 Norte 0 -- -- 79
2019-12-09 09:00:00 15.6 6 Norte 23 Noroeste 0 -- -- 84
2019-12-09 08:00:00 14.8 11 Noroeste 21 Noroeste 0 -- -- 85
2019-12-09 07:00:00 14.6 8 Noroeste 14 Noroeste 0 -- -- 84
2019-12-09 06:00:00 14.5 11 Noroeste 14 Noroeste 0 -- -- 86
2019-12-09 05:00:00 14.2 5 Norte 15 Norte 0 -- -- 86
2019-12-09 04:00:00 15.2 2 Este 8 Norte 0 -- -- 88
2019-12-09 03:00:00 15.2 4 Noroeste 16 Oeste 0 -- -- 88
2019-12-09 02:00:00 15.4 8 Oeste 19 Noroeste 0 -- -- 87
2019-12-09 01:00:00 15.6 14 Noroeste 22 Noroeste 0 -- -- 87
2019-12-09 00:00:00 15.7 7 Oeste 18 Oeste 0 -- -- 86
2019-12-08 23:00:00 15.8 13 Oeste 23 Oeste 0 -- -- 86
2019-12-08 22:00:00 15.7 16 Oeste 26 Oeste 0 -- -- 85
2019-12-08 21:00:00 15.7 21 Oeste 31 Oeste 0 -- -- 85
2019-12-08 20:00:00 15.6 25 Oeste 44 Oeste 0 -- -- 83
2019-12-08 19:00:00 15.6 26 Oeste 34 Oeste 0 -- -- 82
2019-12-08 18:00:00 15.8 21 Oeste 32 Oeste 0 -- -- 80
2019-12-08 17:00:00 16 19 Oeste 33 Oeste 0 -- -- 79
2019-12-08 16:00:00 16.4 15 Oeste 28 Oeste 0 -- -- 77
2019-12-08 15:00:00 17.1 16 Oeste 30 Oeste 0 -- -- 77
2019-12-08 14:00:00 17.5 15 Oeste 25 Oeste 0 -- -- 75
2019-12-08 13:00:00 17.6 14 Oeste 30 Oeste 0 -- -- 78
2019-12-08 12:00:00 17.1 19 Noroeste 31 Noroeste 0 -- -- 79
2019-12-08 11:00:00 16.1 22 Noroeste 35 Noroeste 0 -- -- 82
2019-12-08 10:00:00 15.5 17 Noroeste 29 Noroeste 0 -- -- 83
2019-12-08 09:00:00 14.4 22 Noroeste 33 Noroeste 0 -- -- 84
2019-12-08 08:00:00 14.1 17 Noroeste 25 Noroeste 0 -- -- 84
2019-12-08 07:00:00 14.1 15 Noroeste 32 Noroeste 0 -- -- 84
2019-12-08 06:00:00 13.9 20 Noroeste 35 Noroeste 0 -- -- 84
2019-12-08 05:00:00 14.3 17 Noroeste 33 Noroeste 0 -- -- 85
2019-12-08 04:00:00 14.5 18 Noroeste 26 Noroeste 0 -- -- 85
2019-12-08 03:00:00 14.5 18 Noroeste 28 Noroeste 0 -- -- 85
2019-12-08 02:00:00 14.6 17 Noroeste 30 Noroeste 0 -- -- 84
2019-12-08 01:00:00 14.7 18 Noroeste 34 Noroeste 0 -- -- 83
2019-12-08 00:00:00 14.9 19 Noroeste 31 Noroeste 0 -- -- 82
2019-12-07 23:00:00 15 17 Noroeste 27 Noroeste 0 -- -- 81
2019-12-07 22:00:00 14.7 12 Noroeste 18 Noroeste 0 -- -- 79
2019-12-07 21:00:00 14.9 5 Norte 10 Norte 0 -- -- 77
2019-12-07 20:00:00 15.1 5 Norte 9 Norte 0 -- -- 75
2019-12-07 19:00:00 15.3 3 Este 7 Este 0 -- -- 73
2019-12-07 18:00:00 15.7 2 Nordeste 17 Sudeste 0 -- -- 72
2019-12-07 17:00:00 16 10 Sudeste 22 Sudeste 0 -- -- 71
2019-12-07 16:00:00 16.1 16 Este 25 Este 0 -- -- 71
2019-12-07 15:00:00 16.3 12 Este 21 Sudeste 0 -- -- 70
2019-12-07 14:00:00 16.4 8 Este 26 Este 0 -- -- 67
2019-12-07 13:00:00 16.7 18 Este 31 Este 0 -- -- 63
2019-12-07 12:00:00 16.9 19 Este 28 Nordeste 0 -- -- 62
2019-12-07 11:00:00 16.7 6 Nordeste 17 Nordeste 0 -- -- 64
2019-12-07 10:00:00 15.8 11 Nordeste 32 Norte 0 -- -- 65
2019-12-07 09:00:00 15.5 15 Nordeste 33 Nordeste 0 -- -- 64
2019-12-07 08:00:00 15.4 17 Nordeste 35 Nordeste 0 -- -- 64
2019-12-07 07:00:00 15 3 Noroeste 36 Nordeste 0 -- -- 65
2019-12-07 06:00:00 15.4 11 Norte 32 Nordeste 0 -- -- 63
2019-12-07 05:00:00 15.7 20 Nordeste 49 Nordeste 0 -- -- 63
2019-12-07 04:00:00 15.3 28 Nordeste 44 Nordeste 0 -- -- 68
2019-12-07 03:00:00 15.4 19 Nordeste 49 Nordeste 0 -- -- 69
2019-12-07 02:00:00 15.3 25 Nordeste 43 Nordeste 0 -- -- 70
2019-12-07 01:00:00 15.1 20 Nordeste 36 Nordeste 0 -- -- 70
2019-12-07 00:00:00 15.3 19 Nordeste 42 Nordeste 0 -- -- 69
2019-12-06 23:00:00 15.5 23 Nordeste 46 Nordeste 0 -- -- 70
2019-12-06 22:00:00 15.3 24 Nordeste 51 Este 0 -- -- 75
2019-12-06 21:00:00 15.4 28 Nordeste 58 Este 0 -- -- 77
2019-12-06 20:00:00 15.6 31 Nordeste 62 Nordeste 0 -- -- 77
2019-12-06 19:00:00 15.7 28 Nordeste 59 Este 0 -- -- 77
2019-12-06 18:00:00 15.8 35 Nordeste 62 Nordeste 0 -- -- 75
2019-12-06 17:00:00 16 39 Nordeste 67 Este 0 -- -- 73
2019-12-06 16:00:00 16.5 43 Este 67 Este 0 -- -- 71
2019-12-06 15:00:00 17 43 Nordeste 70 Nordeste 0 -- -- 70
2019-12-06 14:00:00 17 36 Nordeste 69 Este 0 -- -- 70
2019-12-06 13:00:00 17.6 29 Nordeste 63 Este 0 -- -- 69
2019-12-06 12:00:00 17.5 30 Nordeste 66 Este 0 -- -- 69
2019-12-06 11:00:00 17 34 Nordeste 58 Este 0 -- -- 71
2019-12-06 10:00:00 16.3 31 Nordeste 66 Nordeste 0 -- -- 73
2019-12-06 09:00:00 15.7 41 Nordeste 72 Este 0 -- -- 75
2019-12-06 08:00:00 15.3 46 Nordeste 72 Nordeste 0 -- -- 75
2019-12-06 07:00:00 15.3 41 Nordeste 71 Este 0 -- -- 74
2019-12-06 06:00:00 15.2 40 Nordeste 71 Este 0 -- -- 73
2019-12-06 05:00:00 15.3 36 Nordeste 64 Este 0 -- -- 72
2019-12-06 04:00:00 15.3 37 Nordeste 65 Este 0 -- -- 72
2019-12-06 03:00:00 15.2 42 Nordeste 74 Nordeste 0 -- -- 73
2019-12-06 02:00:00 15.1 46 Nordeste 72 Este 0 -- -- 75
2019-12-06 01:00:00 15.2 45 Nordeste 72 Nordeste 0 -- -- 76
2019-12-06 00:00:00 15.2 41 Nordeste 71 Este 0 -- -- 76
2019-12-05 23:00:00 15.1 40 Nordeste 68 Este 0 -- -- 78
2019-12-05 22:00:00 15.3 41 Nordeste 58 Este 0 -- -- 78
2019-12-05 21:00:00 15.4 36 Nordeste 62 Nordeste 0 -- -- 78
2019-12-05 20:00:00 15.5 33 Nordeste 62 Nordeste 0 -- -- 77
2019-12-05 19:00:00 15.4 28 Nordeste 51 Este 0 -- -- 76
2019-12-05 18:00:00 15.3 28 Nordeste 57 Nordeste 0 -- -- 75
2019-12-05 17:00:00 15.5 28 Nordeste 46 Nordeste 0 -- -- 74
2019-12-05 16:00:00 15.6 31 Este 44 Este 0 -- -- 73
2019-12-05 15:00:00 15.8 33 Este 51 Este 0 -- -- 71
2019-12-05 14:00:00 15.4 25 Este 39 Este 0 -- -- 73
2019-12-05 13:00:00 15.1 27 Nordeste 42 Este 0 -- -- 74
2019-12-05 12:00:00 14.9 27 Nordeste 40 Nordeste 0 -- -- 74
2019-12-05 11:00:00 14.8 22 Nordeste 34 Nordeste 0 -- -- 77
2019-12-05 10:00:00 15 21 Nordeste 33 Nordeste 0 -- -- 78
2019-12-05 09:00:00 14.4 18 Nordeste 28 Este 0 -- -- 82
2019-12-05 08:00:00 14.2 14 Nordeste 25 Nordeste 0 -- -- 83
2019-12-05 07:00:00 14.2 6 Este 12 Norte 0 -- -- 84
2019-12-05 06:00:00 13.9 6 Norte 13 Nordeste 0 -- -- 84
2019-12-05 05:00:00 13.7 6 Norte 13 Norte 0 -- -- 84
2019-12-05 04:00:00 14 7 Norte 14 Norte 0 -- -- 83
2019-12-05 03:00:00 14.4 3 Sur 18 Noroeste 0 -- -- 84
2019-12-05 02:00:00 13.8 6 Noroeste 13 Oeste 0 -- -- 83
2019-12-05 01:00:00 13.9 9 Noroeste 27 Noroeste 0 -- -- 82
2019-12-05 00:00:00 14.5 16 Noroeste 34 Noroeste 0 -- -- 81
2019-12-04 23:00:00 15.3 30 Oeste 44 Noroeste 0 -- -- 80
2019-12-04 22:00:00 15.3 23 Oeste 39 Oeste 0 -- -- 79
2019-12-04 21:00:00 15.4 22 Oeste 48 Oeste 0 -- -- 78
2019-12-04 20:00:00 15.3 30 Oeste 49 Oeste 0 -- -- 77
2019-12-04 19:00:00 15.5 28 Oeste 47 Oeste 0 -- -- 79
2019-12-04 18:00:00 15.8 13 Oeste 36 Sudoeste 0 -- -- 78
2019-12-04 17:00:00 15.7 21 Oeste 43 Oeste 0 -- -- 77
2019-12-04 16:00:00 16.2 27 Oeste 50 Oeste 0 -- -- 76
2019-12-04 15:00:00 16.9 29 Oeste 51 Sudoeste 0 -- -- 75
2019-12-04 14:00:00 17.1 14 Oeste 31 Sudoeste 0 -- -- 72
2019-12-04 13:00:00 17.7 11 Oeste 29 Oeste 0 -- -- 70
2019-12-04 12:00:00 17 13 Oeste 30 Oeste 0 -- -- 73
2019-12-04 11:00:00 17 6 Sur 15 Sur 0 -- -- 75
2019-12-04 10:00:00 15.9 8 Oeste 24 Oeste 0 -- -- 81
2019-12-04 09:00:00 14.4 11 Oeste 23 Oeste 0 -- -- 82
2019-12-04 08:00:00 13.6 14 Noroeste 25 Oeste 0 -- -- 82
2019-12-04 07:00:00 13.7 21 Oeste 31 Noroeste 0 -- -- 81
2019-12-04 06:00:00 13.7 14 Noroeste 31 Noroeste 0 -- -- 80
2019-12-04 05:00:00 13.6 23 Noroeste 33 Noroeste 0 -- -- 80
2019-12-04 04:00:00 13.5 19 Noroeste 30 Noroeste 0 -- -- 82
2019-12-04 03:00:00 13.5 21 Noroeste 37 Noroeste 0 -- -- 82
2019-12-04 02:00:00 13 19 Noroeste 41 Noroeste 0 -- -- 80
2019-12-04 01:00:00 13 18 Noroeste 46 Noroeste 0 -- -- 76
2019-12-04 00:00:00 14.1 24 Noroeste 42 Noroeste 0 -- -- 72
2019-12-03 23:00:00 14.1 24 Norte 52 Norte 0 -- -- 66
2019-12-03 22:00:00 13.3 30 Norte 54 Norte 0 -- -- 71
2019-12-03 21:00:00 12.6 30 Norte 69 Norte 0 -- -- 75
2019-12-03 20:00:00 12.6 24 Norte 56 Noroeste 0 -- -- 79
2019-12-03 19:00:00 12.2 27 Nordeste 76 Nordeste 0 -- -- 80
2019-12-03 18:00:00 12.1 30 Nordeste 65 Nordeste 0 -- -- 84
2019-12-03 17:00:00 12.7 32 Nordeste 67 Nordeste 0 -- -- 86
2019-12-03 16:00:00 12.5 25 Nordeste 57 Norte 0.6 -- -- 87
2019-12-03 15:00:00 12.3 24 Norte 62 Noroeste 2.6 -- -- 88
2019-12-03 14:00:00 13 26 Nordeste 71 Nordeste 0.8 -- -- 88
2019-12-03 13:00:00 13.2 30 Nordeste 57 Nordeste 4.8 -- -- 89
2019-12-03 12:00:00 12.1 30 Norte 69 Norte 7.8 -- -- 86
2019-12-03 11:00:00 13 28 Nordeste 51 Norte 4.2 -- -- 87
2019-12-03 10:00:00 12.9 25 Norte 47 Nordeste 15.4 -- -- 87
2019-12-03 09:00:00 12.4 25 Norte 72 Norte 3.6 -- -- 84
2019-12-03 08:00:00 12.8 36 Norte 84 Norte 0.2 -- -- 80
2019-12-03 07:00:00 13 35 Norte 92 Norte -- -- -- 80
2019-12-03 06:00:00 13.3 34 Norte 84 Norte -- -- -- 81
2019-12-03 05:00:00 13.7 27 Norte 62 Norte -- -- -- 81
2019-12-03 04:00:00 14.5 37 Nordeste 70 Nordeste -- -- -- 81
2019-12-03 03:00:00 15.2 37 Nordeste 69 Nordeste -- -- -- 82
2019-12-03 02:00:00 14.7 34 Nordeste 58 Nordeste -- -- -- 84
2019-12-03 01:00:00 14.6 31 Nordeste 53 Este -- -- -- 83
2019-12-03 00:00:00 14.6 15 Norte 42 Nordeste -- -- -- 84
2019-12-02 23:00:00 15 18 Nordeste 34 Nordeste -- -- -- 83
2019-12-02 22:00:00 14.9 11 Nordeste 40 Este -- -- -- 84
2019-12-02 21:00:00 15 21 Nordeste 39 Este -- -- -- 84
2019-12-02 20:00:00 14.7 19 Nordeste 35 Este -- -- -- 83
2019-12-02 19:00:00 14.4 16 Norte 38 Noroeste -- -- -- 82
2019-12-02 18:00:00 14.1 22 Nordeste 46 Nordeste -- -- -- 82
2019-12-02 17:00:00 14.6 26 Nordeste 48 Este -- -- -- 79
2019-12-02 16:00:00 14.6 31 Este 54 Este -- -- -- 78
2019-12-02 15:00:00 14.8 28 Este 41 Este -- -- -- 76
2019-12-02 14:00:00 14.8 19 Este 35 Este -- -- -- 81
2019-12-02 13:00:00 14.8 19 Este 30 Este -- -- -- 82
2019-12-02 12:00:00 14.9 18 Este 29 Sudeste -- -- -- 83
2019-12-02 11:00:00 14.6 20 Este 28 Este -- -- -- 84
2019-12-02 10:00:00 14.9 6 Este 13 Este -- -- -- 84
2019-12-02 09:00:00 14.7 3 Nordeste 9 Sudeste -- -- -- 84
2019-12-02 08:00:00 14.5 4 Sudeste 8 Este -- -- -- 84
2019-12-02 07:00:00 14.5 2 Sudeste 19 Oeste -- -- -- 85
2019-12-02 06:00:00 15 12 Oeste 28 Oeste -- -- -- 84
2019-12-02 05:00:00 15 11 Oeste 27 Noroeste -- -- -- 84
2019-12-02 04:00:00 15.2 9 Oeste 29 Oeste -- -- -- 84
2019-12-02 03:00:00 15 14 Oeste 32 Oeste -- -- -- 84
2019-12-02 02:00:00 15.3 17 Oeste 35 Oeste -- -- -- 84
2019-12-02 01:00:00 15.3 14 Oeste 41 Oeste -- -- -- 84
2019-12-02 00:00:00 15.6 22 Oeste 42 Oeste -- -- -- 83
2019-12-01 23:00:00 15.6 23 Oeste 41 Sudoeste -- -- -- 82
2019-12-01 22:00:00 15.7 24 Oeste 46 Oeste -- -- -- 83
2019-12-01 21:00:00 15.7 26 Oeste 51 Oeste -- -- -- 82
2019-12-01 20:00:00 15.6 30 Oeste 47 Oeste -- -- -- 81
2019-12-01 19:00:00 15.4 23 Oeste 41 Sudoeste -- -- -- 81
2019-12-01 18:00:00 15.7 32 Oeste 51 Oeste -- -- -- 81
2019-12-01 17:00:00 16.1 29 Oeste 54 Oeste -- -- -- 78
2019-12-01 16:00:00 16.4 26 Oeste 43 Oeste -- -- -- 76
2019-12-01 15:00:00 16.7 20 Oeste 40 Sudoeste -- -- -- 74
2019-12-01 14:00:00 16.7 15 Oeste 39 Oeste -- -- -- 77
2019-12-01 13:00:00 16.7 19 Oeste 41 Oeste -- -- -- 77
2019-12-01 12:00:00 18.2 27 Oeste 41 Oeste -- -- -- 79
2019-12-01 11:00:00 17.6 15 Oeste 27 Noroeste -- -- -- 83
2019-12-01 10:00:00 16.7 15 Oeste 29 Sudoeste -- -- -- 85
2019-12-01 09:00:00 16.3 18 Oeste 34 Oeste -- -- -- 87
2019-12-01 08:00:00 15.5 14 Oeste 39 Oeste -- -- -- 87
2019-12-01 07:00:00 15.8 28 Oeste 41 Oeste -- -- -- 87
2019-12-01 06:00:00 15.7 16 Oeste 34 Oeste -- -- -- 88
2019-12-01 05:00:00 15.7 17 Oeste 33 Oeste -- -- -- 88
2019-12-01 04:00:00 15.7 15 Oeste 31 Oeste -- -- -- 88
2019-12-01 03:00:00 15.8 15 Oeste 31 Oeste -- -- -- 89
2019-12-01 02:00:00 15.6 16 Oeste 34 Oeste -- -- -- 88
2019-12-01 01:00:00 15.6 18 Oeste 32 Oeste -- -- -- 88
2019-12-01 00:00:00 15.9 21 Oeste 35 Oeste -- -- -- 88
2019-11-30 23:00:00 15.6 18 Oeste 33 Oeste -- -- -- 88
2019-11-30 22:00:00 14.9 19 Oeste 28 Oeste -- -- -- 87
2019-11-30 21:00:00 15.8 13 Oeste 29 Oeste -- -- -- 87
2019-11-30 20:00:00 15.8 15 Oeste 25 Sudoeste -- -- -- 86
2019-11-30 19:00:00 15.6 11 Oeste 19 Oeste -- -- -- 85
2019-11-30 18:00:00 15.8 10 Oeste 22 Oeste -- -- -- 85
2019-11-30 17:00:00 16.5 10 Oeste 21 Oeste -- -- -- 82
2019-11-30 16:00:00 17.8 5 Sudoeste 12 Sudoeste -- -- -- 78
2019-11-30 15:00:00 18.3 7 Oeste 14 Oeste -- -- -- 79
2019-11-30 14:00:00 18.7 5 Oeste 9 Oeste -- -- -- 75
2019-11-30 13:00:00 19.6 3 Sudoeste 7 Sudoeste -- -- -- 76
2019-11-30 12:00:00 19.2 3 Sur 6 Sudoeste -- -- -- 81
2019-11-30 11:00:00 18 0 Calma 5 Sudeste -- -- -- 85
2019-11-30 10:00:00 17 4 Sudeste 12 Este -- -- -- 86
2019-11-30 09:00:00 15.8 4 Este 10 Sudeste -- -- -- 87
2019-11-30 08:00:00 14.5 4 Este 7 Este -- -- -- 87
2019-11-30 07:00:00 14.4 2 Oeste 11 Nordeste -- -- -- 87
2019-11-30 06:00:00 14.9 6 Este 11 Sudeste -- -- -- 88
2019-11-30 05:00:00 15.1 8 Este 14 Sudeste -- -- -- 88
2019-11-30 04:00:00 14.9 2 Este 4 Este -- -- -- 86
2019-11-30 03:00:00 15.1 3 Este 4 Este -- -- -- 87
2019-11-30 02:00:00 15.2 4 Este 5 Este -- -- -- 86
2019-11-30 01:00:00 15.3 4 Este 9 Este -- -- -- 85
2019-11-30 00:00:00 15.4 5 Este 13 Este -- -- -- 85
2019-11-29 23:00:00 15.3 10 Este 14 Este -- -- -- 84
2019-11-29 22:00:00 15.2 3 Este 6 Este -- -- -- 83
2019-11-29 21:00:00 14.7 4 Noroeste 9 Norte -- -- -- 84
2019-11-29 20:00:00 15.1 3 Norte 10 Noroeste -- -- -- 84
2019-11-29 19:00:00 15.3 3 Noroeste 9 Norte -- -- -- 82
2019-11-29 18:00:00 16.5 3 Oeste 6 Sudoeste -- -- -- 80
2019-11-29 17:00:00 16.8 2 Oeste 9 Sur -- -- -- 79
2019-11-29 16:00:00 17.5 3 Sur 11 Sur -- -- -- 78
2019-11-29 15:00:00 18.4 3 Sudoeste 10 Sur -- -- -- 78
2019-11-29 14:00:00 18.7 5 Sur 10 Sudeste -- -- -- 74
2019-11-29 13:00:00 18.6 6 Sudeste 13 Este -- -- -- 77
2019-11-29 12:00:00 17.8 6 Este 19 Este -- -- -- 81
2019-11-29 11:00:00 16.9 16 Este 19 Este -- -- -- 84
2019-11-29 10:00:00 16.6 8 Este 13 Norte -- -- -- 86
2019-11-29 09:00:00 15 0 Calma 5 Nordeste -- -- -- 88
2019-11-29 08:00:00 13.9 2 Este 8 Norte -- -- -- 88
2019-11-29 07:00:00 14.2 0 Calma 8 Norte -- -- -- 87
2019-11-29 06:00:00 14.1 3 Norte 10 Norte -- -- -- 87
2019-11-29 05:00:00 14.2 3 Norte 9 Norte -- -- -- 87
2019-11-29 04:00:00 14.2 2 Nordeste 11 Noroeste -- -- -- 87
2019-11-29 03:00:00 14.2 6 Norte 11 Norte -- -- -- 87
2019-11-29 02:00:00 14.7 5 Norte 11 Noroeste -- -- -- 87
2019-11-29 01:00:00 15.2 5 Oeste 20 Oeste -- -- -- 87
2019-11-29 00:00:00 15.8 4 Noroeste 14 Oeste -- -- -- 86
2019-11-28 23:00:00 15.6 4 Oeste 15 Oeste -- -- -- 84
2019-11-28 22:00:00 15.5 9 Oeste 23 Oeste -- -- -- 84
2019-11-28 21:00:00 15.8 11 Oeste 24 Oeste -- -- -- 83
2019-11-28 20:00:00 15.9 10 Oeste 19 Oeste -- -- -- 83
2019-11-28 19:00:00 16 7 Oeste 16 Noroeste -- -- -- 82
2019-11-28 18:00:00 16.4 8 Oeste 13 Noroeste -- -- -- 80
2019-11-28 17:00:00 17 8 Oeste 14 Oeste -- -- -- 78
2019-11-28 16:00:00 17.5 6 Oeste 15 Oeste -- -- -- 77
2019-11-28 15:00:00 18.4 4 Sudoeste 9 Sur -- -- -- 77
2019-11-28 14:00:00 18.6 3 Sudoeste 10 Sudeste -- -- -- 74
2019-11-28 13:00:00 19 5 Oeste 12 Noroeste -- -- -- 74
2019-11-28 12:00:00 19 2 Sudoeste 7 Sudeste -- -- -- 75
2019-11-28 11:00:00 17.8 2 Sudoeste 4 Sudoeste -- -- -- 81
2019-11-28 10:00:00 16.5 3 Oeste 10 Noroeste -- -- -- 84
2019-11-28 09:00:00 16 0 Calma 6 Norte -- -- -- 85
2019-11-28 08:00:00 14.1 5 Norte 11 Noroeste -- -- -- 85
2019-11-28 07:00:00 14.7 4 Norte 10 Noroeste -- -- -- 84
2019-11-28 06:00:00 14.7 4 Norte 14 Norte -- -- -- 85
2019-11-28 05:00:00 15.1 4 Norte 11 Este -- -- -- 84
2019-11-28 04:00:00 14.9 3 Norte 13 Norte -- -- -- 84
2019-11-28 03:00:00 15.1 8 Norte 12 Norte -- -- -- 83
2019-11-28 02:00:00 15.4 3 Noroeste 13 Oeste -- -- -- 83
2019-11-28 01:00:00 15.2 7 Noroeste 13 Noroeste -- -- -- 85
2019-11-28 00:00:00 14.8 6 Noroeste 18 Noroeste -- -- -- 85
2019-11-27 23:00:00 15.8 13 Oeste 26 Noroeste -- -- -- 85
2019-11-27 22:00:00 16.1 22 Noroeste 32 Oeste -- -- -- 84
2019-11-27 21:00:00 16.2 14 Oeste 25 Oeste -- -- -- 85
2019-11-27 20:00:00 16.4 12 Oeste 31 Noroeste -- -- -- 84
2019-11-27 19:00:00 16.4 18 Noroeste 35 Oeste -- -- -- 83
2019-11-27 18:00:00 16.8 23 Oeste 41 Oeste -- -- -- 82
2019-11-27 17:00:00 17.3 23 Oeste 38 Oeste -- -- -- 80
2019-11-27 16:00:00 17.6 25 Oeste 38 Oeste -- -- -- 79
2019-11-27 15:00:00 18.2 24 Oeste 39 Oeste -- -- -- 78
2019-11-27 14:00:00 18.1 22 Oeste 40 Oeste -- -- -- 77
2019-11-27 06:00:00 -- -- -- -- -- -- -- -- --
2019-11-27 05:00:00 -- -- -- -- -- -- -- -- --
2019-11-27 04:00:00 -- -- -- -- -- -- -- -- --
2019-11-27 03:00:00 16 25 Oeste 46 Oeste -- -- -- 88
2019-11-27 02:00:00 16 28 Oeste 47 Oeste -- -- -- 88
2019-11-27 01:00:00 16.1 33 Oeste 50 Oeste -- -- -- 88
2019-11-27 00:00:00 16.2 24 Oeste 36 Oeste -- -- -- 88
2019-11-26 23:00:00 16.3 19 Oeste 36 Oeste -- -- -- 88
2019-11-26 22:00:00 16.3 23 Oeste 35 Sudoeste -- -- -- 87
2019-11-26 21:00:00 16.4 18 Oeste 28 Oeste -- -- -- 86
2019-11-26 20:00:00 16.5 9 Oeste 19 Oeste -- -- -- 85
2019-11-26 19:00:00 16.3 10 Oeste 18 Oeste -- -- -- 84
2019-11-26 18:00:00 16.6 10 Oeste 17 Noroeste -- -- -- 82
2019-11-26 17:00:00 17.1 8 Oeste 14 Noroeste -- -- -- 81
2019-11-26 16:00:00 17.4 9 Oeste 22 Noroeste -- -- -- 78
2019-11-26 15:00:00 18.3 13 Oeste 20 Noroeste -- -- -- 76
2019-11-26 14:00:00 18.7 9 Oeste 16 Oeste -- -- -- 71
2019-11-26 13:00:00 19.5 7 Oeste 11 Oeste -- -- -- 72
2019-11-26 12:00:00 19.1 0 Calma 5 Sudeste -- -- -- 78
2019-11-26 11:00:00 18.9 4 Sur 8 Oeste -- -- -- 81
2019-11-26 10:00:00 18.1 0 Calma 5 Noroeste -- -- -- 82
2019-11-26 09:00:00 16.1 0 Calma 8 Norte -- -- -- 83
2019-11-26 08:00:00 14.8 0 Calma 10 Noroeste -- -- -- 82
2019-11-26 07:00:00 14.9 8 Noroeste 14 Noroeste -- -- -- 82
2019-11-26 06:00:00 15.4 4 Este 15 Oeste -- -- -- 82
2019-11-26 05:00:00 15.1 4 Noroeste 22 Norte -- -- -- 81
2019-11-26 04:00:00 15.3 16 Noroeste 28 Noroeste -- -- -- 81
2019-11-26 03:00:00 16.5 13 Oeste 31 Nordeste -- -- -- 75
2019-11-26 02:00:00 17.9 16 Este 28 Nordeste -- -- -- 81
2019-11-26 01:00:00 15.4 5 Noroeste 11 Noroeste -- -- -- 83
2019-11-26 00:00:00 16.1 4 Sudeste 18 Este -- -- -- 84
2019-11-25 23:00:00 16.1 7 Este 16 Norte -- -- -- 85
2019-11-25 22:00:00 16.4 7 Este 14 Este -- -- -- 84
2019-11-25 21:00:00 16.3 10 Este 15 Este -- -- -- 84
2019-11-25 20:00:00 16.1 4 Norte 9 Norte -- -- -- 83
2019-11-25 19:00:00 16.2 6 Oeste 15 Oeste -- -- -- 83
2019-11-25 18:00:00 16.6 6 Oeste 13 Oeste -- -- -- 82
2019-11-25 17:00:00 17.1 5 Oeste 20 Oeste -- -- -- 81
2019-11-25 16:00:00 17.1 10 Oeste 19 Oeste -- -- -- 80
2019-11-25 15:00:00 16.9 6 Oeste 21 Oeste -- -- -- 79
2019-11-25 14:00:00 17.1 12 Oeste 27 Oeste -- -- -- 76
2019-11-25 13:00:00 17.2 10 Oeste 28 Noroeste -- -- -- 72
2019-11-25 12:00:00 18 12 Oeste 24 Noroeste -- -- -- 72
2019-11-25 11:00:00 17.6 10 Oeste 17 Noroeste -- -- -- 72
2019-11-25 10:00:00 17 2 Noroeste 8 Noroeste -- -- -- 75
2019-11-25 09:00:00 14.8 4 Noroeste 14 Norte -- -- -- 77
2019-11-25 08:00:00 13.9 5 Noroeste 14 Norte -- -- -- 73
2019-11-25 07:00:00 13.3 8 Noroeste 13 Norte -- -- -- 68
2019-11-25 06:00:00 13.5 6 Noroeste 21 Noroeste -- -- -- 63
2019-11-25 05:00:00 13.4 10 Norte 18 Norte -- -- -- 65
2019-11-25 04:00:00 12.6 12 Noroeste 18 Noroeste -- -- -- 76
2019-11-25 03:00:00 13.9 2 Sudoeste 10 Noroeste -- -- -- 73
2019-11-25 02:00:00 13.3 8 Noroeste 15 Norte -- -- -- 71
2019-11-25 01:00:00 13.5 7 Norte 11 Nordeste -- -- -- 78
2019-11-25 00:00:00 14.1 2 Este 12 Norte -- -- -- 80
2019-11-24 23:00:00 14.3 8 Noroeste 13 Noroeste -- -- -- 78
2019-11-24 22:00:00 15.1 6 Oeste 19 Oeste -- -- -- 76
2019-11-24 21:00:00 15.1 9 Oeste 24 Oeste -- -- -- 74
2019-11-24 20:00:00 15.2 12 Oeste 25 Oeste -- -- -- 73
2019-11-24 19:00:00 15.3 13 Oeste 24 Oeste -- -- -- 72
2019-11-24 18:00:00 15.9 9 Oeste 22 Oeste -- -- -- 69
2019-11-24 17:00:00 16.1 12 Oeste 19 Noroeste -- -- -- 64
2019-11-24 16:00:00 16.6 12 Oeste 20 Noroeste -- -- -- 62
2019-11-24 15:00:00 17.6 9 Oeste 17 Oeste 0 -- -- 62
2019-11-24 14:00:00 17.8 5 Sudeste 10 Sur 0 -- -- 56
2019-11-24 13:00:00 18.4 4 Sudeste 13 Sudoeste 0 -- -- 57
2019-11-24 12:00:00 18.7 6 Sudeste 12 Este 0 -- -- 60
2019-11-24 11:00:00 17.4 6 Este 14 Sudeste 0 -- -- 56
2019-11-24 10:00:00 17.1 3 Sur 14 Norte 0 -- -- 51
2019-11-24 09:00:00 15.1 5 Norte 18 Norte 0 -- -- 46
2019-11-24 08:00:00 14.1 12 Norte 50 Noroeste 0 -- -- 45
2019-11-24 07:00:00 14.5 18 Noroeste 31 Noroeste 0 -- -- 42
2019-11-24 06:00:00 14.7 9 Noroeste 30 Norte 0 -- -- 41
2019-11-24 05:00:00 14.3 16 Norte 28 Norte 0 -- -- 46
2019-11-24 04:00:00 14.4 14 Norte 22 Norte 0 -- -- 61
2019-11-24 03:00:00 14.8 5 Noroeste 27 Oeste 0 -- -- 65
2019-11-24 02:00:00 15.2 27 Noroeste 55 Norte 0 -- -- 60
2019-11-24 01:00:00 15.6 36 Norte 67 Norte 0 -- -- 42
2019-11-24 00:00:00 15.6 28 Noroeste 66 Norte 0 -- -- 46
2019-11-23 23:00:00 15.1 17 Noroeste 38 Noroeste 0 -- -- 63
2019-11-23 22:00:00 15.5 14 Oeste 37 Oeste 0 -- -- 70
2019-11-23 21:00:00 15.8 21 Oeste 40 Oeste 0 -- -- 67
2019-11-23 20:00:00 16.2 28 Oeste 71 Oeste 0 -- -- 57
2019-11-23 19:00:00 16.4 23 Oeste 47 Oeste 0 -- -- 50
2019-11-23 18:00:00 16.8 24 Oeste 71 Norte 0 -- -- 55
2019-11-23 17:00:00 16.5 36 Oeste 92 Oeste 0 -- -- 64
2019-11-23 16:00:00 16.2 67 Oeste 89 Oeste 0 -- -- 68
2019-11-23 15:00:00 16.7 23 Oeste 53 Oeste 0 -- -- 67
2019-11-23 14:00:00 16.8 31 Oeste 67 Oeste 0 -- -- 63
2019-11-23 13:00:00 17.1 46 Oeste 85 Oeste 0 -- -- 63
2019-11-23 12:00:00 17.4 47 Oeste 75 Oeste 0 -- -- 63
2019-11-23 11:00:00 17.3 36 Oeste 57 Noroeste 0 -- -- 66
2019-11-23 10:00:00 17.4 20 Oeste 35 Noroeste 0 -- -- 63
2019-11-23 09:00:00 16 17 Noroeste 62 Noroeste 0 -- -- 62
2019-11-23 08:00:00 15.8 45 Oeste 79 Sudoeste 0 -- -- 69
2019-11-23 07:00:00 16 47 Oeste 71 Oeste 0 -- -- 68
2019-11-23 06:00:00 16 41 Oeste 66 Noroeste 0 -- -- 74
2019-11-23 05:00:00 16 44 Oeste 78 Noroeste 0 -- -- 78
2019-11-23 04:00:00 16 30 Oeste 61 Sudoeste 0 -- -- 78
2019-11-23 03:00:00 16 24 Oeste 49 Noroeste 0 -- -- 80
2019-11-23 02:00:00 15.9 18 Sur 44 Oeste 0 -- -- 84
2019-11-23 01:00:00 15.9 20 Sudoeste 45 Oeste 0 -- -- 89
2019-11-23 00:00:00 16.8 15 Oeste 53 Sudoeste 0 -- -- 90
2019-11-22 23:00:00 17.1 36 Oeste 60 Oeste 0 -- -- 90
2019-11-22 22:00:00 17 15 Oeste 41 Sur 0 -- -- 90
2019-11-22 21:00:00 17.1 18 Oeste 40 Oeste 0 -- -- 90
2019-11-22 20:00:00 16.5 14 Oeste 43 Oeste 0 -- -- 90
2019-11-22 19:00:00 15.8 12 Sudoeste 32 Oeste 0 -- -- 91
2019-11-22 18:00:00 15.3 12 Oeste 24 Sudoeste 0 -- -- 91
2019-11-22 17:00:00 15.2 8 Oeste 28 Oeste 0 -- -- 90
2019-11-22 16:00:00 15.1 11 Oeste 29 Oeste 0 -- -- 90
2019-11-22 15:00:00 14.8 13 Oeste 27 Oeste 0 -- -- 90
2019-11-22 14:00:00 14.9 14 Oeste 23 Sudoeste 0 -- -- 89
2019-11-22 13:00:00 15.2 9 Oeste 25 Sur 0 -- -- 90
2019-11-22 12:00:00 15.1 9 Sur 17 Sur 0 -- -- 90
2019-11-22 11:00:00 15.2 3 Sur 22 Oeste 0 -- -- 90
2019-11-22 10:00:00 15 13 Oeste 29 Sudoeste 0 -- -- 90
2019-11-22 09:00:00 15.1 10 Oeste 33 Oeste 0 -- -- 89
2019-11-22 08:00:00 15.2 15 Oeste 37 Oeste 0 -- -- 89
2019-11-22 07:00:00 15.3 13 Oeste 30 Oeste 0.2 -- -- 87
2019-11-22 06:00:00 15.4 10 Sur 27 Sudoeste 0 -- -- 86
2019-11-22 05:00:00 15.5 8 Oeste 25 Sudoeste 0 -- -- 85
2019-11-22 04:00:00 15.5 7 Oeste 30 Oeste 0 -- -- 86
2019-11-22 03:00:00 15.5 12 Oeste 24 Sudoeste 0 -- -- 86
2019-11-22 02:00:00 15.3 14 Oeste 30 Oeste 0 -- -- 86
2019-11-22 01:00:00 15 17 Oeste 27 Oeste 0 -- -- 85
2019-11-22 00:00:00 15 14 Oeste 24 Oeste 0 -- -- 85
2019-11-21 23:00:00 14.9 15 Oeste 32 Oeste 0 -- -- 84
2019-11-21 22:00:00 14.9 19 Oeste 37 Oeste 0 -- -- 84
2019-11-21 21:00:00 15.2 25 Oeste 41 Oeste 0 -- -- 85
2019-11-21 20:00:00 15.5 22 Oeste 31 Oeste 0 -- -- 85
2019-11-21 19:00:00 15.3 10 Oeste 19 Oeste 0 -- -- 85
2019-11-21 18:00:00 15.4 4 Sudoeste 16 Oeste 0 -- -- 84
2019-11-21 17:00:00 15.6 5 Sur 21 Sudoeste 0 -- -- 84
2019-11-21 16:00:00 15.6 7 Sur 24 Oeste 0 -- -- 83
2019-11-21 15:00:00 15.8 8 Oeste 29 Oeste 0 -- -- 83
2019-11-21 14:00:00 15.7 17 Oeste 35 Sudoeste 0 -- -- 83
2019-11-21 13:00:00 15.6 23 Oeste 38 Oeste 0 -- -- 83
2019-11-21 12:00:00 15.6 22 Oeste 38 Oeste 0 -- -- 83
2019-11-21 11:00:00 16 22 Oeste 34 Oeste 0 -- -- 84
2019-11-21 10:00:00 15.1 21 Oeste 37 Oeste 0 -- -- 84
2019-11-21 09:00:00 14.8 29 Oeste 44 Oeste 0 -- -- 84
2019-11-21 08:00:00 -- -- -- -- -- -- -- -- --
2019-11-21 07:00:00 -- -- -- -- -- -- -- -- --
2019-11-21 06:00:00 -- -- -- -- -- -- -- -- --
2019-11-21 05:00:00 -- -- -- -- -- -- -- -- --
2019-11-21 04:00:00 -- -- -- -- -- -- -- -- --
2019-11-21 03:00:00 -- -- -- -- -- -- -- -- --
2019-11-21 02:00:00 -- -- -- -- -- -- -- -- --
2019-11-21 01:00:00 -- -- -- -- -- -- -- -- --
2019-11-21 00:00:00 -- -- -- -- -- -- -- -- --
2019-11-20 23:00:00 -- -- -- -- -- -- -- -- --
2019-11-20 22:00:00 -- -- -- -- -- -- -- -- --
2019-11-20 21:00:00 -- -- -- -- -- -- -- -- --
2019-11-20 20:00:00 -- -- -- -- -- -- -- -- --
2019-11-20 19:00:00 14.7 14 Oeste 33 Oeste 0 -- -- 78
2019-11-20 18:00:00 14.6 12 Oeste 36 Sudoeste 0 -- -- 76
2019-11-20 17:00:00 15.1 12 Oeste 41 Oeste 0 -- -- 73
2019-11-20 16:00:00 15.9 10 Noroeste 28 Oeste 0 -- -- 72
2019-11-20 15:00:00 16.7 10 Sudoeste 32 Sudoeste 0 -- -- 69
2019-11-20 14:00:00 16.6 8 Oeste 29 Sudoeste 0 -- -- 67
2019-11-20 13:00:00 17.9 9 Oeste 16 Sudoeste 0 -- -- 63
2019-11-20 12:00:00 17.2 7 Oeste 12 Oeste 0 -- -- 66
2019-11-20 11:00:00 16.5 5 Oeste 12 Noroeste 0 -- -- 69
2019-11-20 10:00:00 15 4 Oeste 13 Noroeste 0 -- -- 73
2019-11-20 09:00:00 12.9 8 Noroeste 12 Noroeste 0 -- -- 74
2019-11-20 08:00:00 12.3 7 Norte 14 Norte 0 -- -- 74
2019-11-20 07:00:00 12.4 6 Noroeste 10 Norte 0 -- -- 72
2019-11-20 06:00:00 13 7 Norte 12 Norte 0 -- -- 73
2019-11-20 05:00:00 13 5 Noroeste 10 Norte 0 -- -- 73
2019-11-20 04:00:00 13 4 Norte 9 Noroeste 0 -- -- 72
2019-11-20 03:00:00 13.2 4 Noroeste 10 Noroeste 0 -- -- 72
2019-11-20 02:00:00 13 6 Norte 12 Norte 0 -- -- 71
2019-11-20 01:00:00 13.2 6 Norte 14 Noroeste 0 -- -- 71
2019-11-20 00:00:00 13.2 10 Noroeste 15 Noroeste 0 -- -- 71
2019-11-19 23:00:00 13.7 7 Noroeste 19 Oeste 0 -- -- 69
2019-11-19 22:00:00 14.3 12 Oeste 22 Oeste 0 -- -- 68
2019-11-19 21:00:00 14.5 16 Oeste 26 Oeste 0 -- -- 67
2019-11-19 20:00:00 14.5 18 Oeste 27 Oeste 0 -- -- 68
2019-11-19 19:00:00 14.7 21 Oeste 27 Oeste 0 -- -- 68
2019-11-19 18:00:00 15.3 9 Oeste 19 Sudoeste 0 -- -- 69
2019-11-19 17:00:00 16 3 Sudoeste 9 Sur 0 -- -- 67
2019-11-19 16:00:00 16.3 4 Sudeste 9 Sudeste 0 -- -- 63
2019-11-19 15:00:00 16.9 3 Sudeste 13 Este 0 -- -- 64
2019-11-19 14:00:00 17.1 3 Norte 12 Sudeste 0 -- -- 60
2019-11-19 13:00:00 17.1 6 Este 26 Sudeste 0 -- -- 63
2019-11-19 12:00:00 17 17 Este 25 Este 0 -- -- 62
2019-11-19 11:00:00 16 14 Este 23 Este 0 -- -- 55
2019-11-19 10:00:00 14.6 2 Este 5 Este 0 -- -- 66
2019-11-19 09:00:00 13.7 3 Norte 8 Noroeste 0 -- -- 66
2019-11-19 08:00:00 13.5 2 Norte 6 Noroeste 0 -- -- 66
2019-11-19 07:00:00 13.2 2 Noroeste 9 Oeste 0 -- -- 65
2019-11-19 06:00:00 13.5 3 Norte 12 Norte 0 -- -- 62
2019-11-19 05:00:00 13.4 5 Noroeste 9 Noroeste 0 -- -- 64
2019-11-19 04:00:00 14.3 2 Nordeste 14 Nordeste 0 -- -- 61
2019-11-19 03:00:00 14.3 8 Nordeste 13 Este 0 -- -- 53
2019-11-19 02:00:00 14.1 5 Norte 14 Norte 0 -- -- 48
2019-11-19 01:00:00 14.5 8 Nordeste 18 Nordeste 0 -- -- 46
2019-11-19 00:00:00 14.1 8 Nordeste 14 Norte 0 -- -- 48
2019-11-18 23:00:00 14.4 13 Este 19 Este 0 -- -- 51
2019-11-18 22:00:00 13.5 5 Norte 16 Norte 0 -- -- 57
2019-11-18 21:00:00 14.4 11 Norte 21 Nordeste 0 -- -- 62
2019-11-18 20:00:00 15.7 14 Nordeste 19 Nordeste 0 -- -- 51
2019-11-18 19:00:00 15.2 16 Noroeste 35 Noroeste 0 -- -- 55
2019-11-18 18:00:00 15.9 0 Calma 11 Sudeste 0 -- -- 68
2019-11-18 17:00:00 16 3 Este 16 Este 0 -- -- 69
2019-11-18 16:00:00 16 13 Este 23 Este 0 -- -- 73
2019-11-18 15:00:00 16.4 17 Este 28 Este 0 -- -- 70
2019-11-18 14:00:00 16.6 5 Este 20 Sudeste 0 -- -- 67
2019-11-18 13:00:00 17.3 11 Este 21 Sudeste 0 -- -- 66
2019-11-18 12:00:00 16.6 17 Este 28 Este 0 -- -- 62
2019-11-18 11:00:00 16.4 10 Nordeste 22 Este 0 -- -- 64
2019-11-18 10:00:00 15.3 4 Oeste 22 Noroeste 0 -- -- 74
2019-11-18 09:00:00 12.6 13 Norte 24 Noroeste 0 -- -- 84
2019-11-18 08:00:00 12.7 11 Noroeste 34 Noroeste 0.2 -- -- 87
2019-11-18 07:00:00 12.6 22 Norte 72 Oeste 3.4 -- -- 88
2019-11-18 06:00:00 15.5 35 Oeste 65 Oeste 0 -- -- 88
2019-11-18 05:00:00 15.4 31 Oeste 63 Oeste 0 -- -- 87
2019-11-18 04:00:00 15.4 41 Oeste 79 Sudoeste 0.2 -- -- 87
2019-11-18 03:00:00 15.5 37 Oeste 64 Oeste 0 -- -- 86
2019-11-18 02:00:00 15.5 38 Oeste 62 Sudoeste 0 -- -- 86
2019-11-18 01:00:00 15.4 33 Oeste 66 Sudoeste 0 -- -- 86
2019-11-18 00:00:00 15.3 39 Oeste 75 Sudoeste 0 -- -- 85
2019-11-17 23:00:00 15.3 49 Oeste 80 Oeste 0 -- -- 85
2019-11-17 22:00:00 15.2 34 Oeste 62 Oeste 0 -- -- 83
2019-11-17 21:00:00 15.2 38 Oeste 68 Sudoeste 0 -- -- 82
2019-11-17 20:00:00 15.2 32 Oeste 58 Oeste 0 -- -- 80
2019-11-17 19:00:00 15.3 30 Oeste 56 Oeste 0 -- -- 77
2019-11-17 18:00:00 15.3 31 Oeste 54 Oeste 0 -- -- 74
2019-11-17 17:00:00 15.7 30 Oeste 55 Oeste 0 -- -- 71
2019-11-17 16:00:00 15.7 29 Oeste 54 Oeste 0 -- -- 67
2019-11-17 15:00:00 16 30 Oeste 47 Oeste 0 -- -- 59
2019-11-17 14:00:00 15.5 28 Oeste 45 Sudoeste 0 -- -- 63
2019-11-17 13:00:00 15.8 18 Oeste 33 Sudoeste 0 -- -- 53
2019-11-17 12:00:00 18 13 Oeste 26 Sudoeste 0 -- -- 49
2019-11-17 11:00:00 17.2 9 Oeste 17 Oeste 0 -- -- 48
2019-11-17 10:00:00 15.9 6 Oeste 21 Noroeste 0 -- -- 57
2019-11-17 09:00:00 13.5 6 Norte 12 Norte 0 -- -- 53
2019-11-17 08:00:00 12.6 4 Este 14 Norte 0 -- -- 52
2019-11-17 07:00:00 12.2 10 Norte 18 Oeste 0 -- -- 44
2019-11-17 06:00:00 12.1 13 Noroeste 24 Noroeste 0 -- -- 43
2019-11-17 05:00:00 12.1 10 Noroeste 16 Noroeste 0 -- -- 56
2019-11-17 04:00:00 12.8 10 Norte 14 Norte 0 -- -- 58
2019-11-17 03:00:00 13.2 3 Noroeste 10 Norte 0 -- -- 55
2019-11-17 02:00:00 13.9 7 Este 12 Este 0 -- -- 59
2019-11-17 01:00:00 13.9 9 Este 12 Este 0 -- -- 56
2019-11-17 00:00:00 13.9 7 Este 28 Noroeste 0 -- -- 40
2019-11-16 23:00:00 14.1 16 Noroeste 32 Norte 0 -- -- 33
2019-11-16 22:00:00 14.7 16 Noroeste 42 Norte 0 -- -- 33
2019-11-16 21:00:00 14.3 19 Norte 49 Oeste 0 -- -- 39
2019-11-16 20:00:00 14.4 17 Oeste 35 Oeste 0 -- -- 66
2019-11-16 19:00:00 14.5 20 Oeste 38 Oeste 0 -- -- 62
2019-11-16 18:00:00 14.3 22 Oeste 37 Oeste 0 -- -- 56
2019-11-16 17:00:00 14.6 18 Oeste 36 Sudoeste 0 -- -- 57
2019-11-16 16:00:00 15.1 19 Oeste 36 Oeste 0 -- -- 55
2019-11-16 15:00:00 15.6 15 Oeste 27 Sudoeste 0 -- -- 55
2019-11-16 14:00:00 15.4 6 Sudeste 14 Sudeste 0 -- -- 50
2019-11-16 13:00:00 16.8 6 Sudeste 17 Sur 0 -- -- 48
2019-11-16 12:00:00 17.6 8 Sudoeste 27 Noroeste 0 -- -- 38
2019-11-16 11:00:00 16.2 24 Oeste 35 Noroeste 0 -- -- 39
2019-11-16 10:00:00 13.8 12 Noroeste 49 Norte 0 -- -- 38
2019-11-16 09:00:00 12.5 17 Norte 37 Norte 0 -- -- 41
2019-11-16 08:00:00 11.7 17 Noroeste 41 Oeste 0 -- -- 46
2019-11-16 07:00:00 11.9 18 Noroeste 41 Noroeste 0 -- -- 45
2019-11-16 06:00:00 12.3 19 Noroeste 50 Noroeste 0 -- -- 46
2019-11-16 05:00:00 12.9 23 Oeste 41 Noroeste 0 -- -- 56
2019-11-16 04:00:00 12.4 17 Noroeste 43 Oeste 0 -- -- 51
2019-11-16 03:00:00 12.1 21 Noroeste 39 Noroeste 0 -- -- 46
2019-11-16 02:00:00 11.9 23 Noroeste 33 Noroeste 0 -- -- 45
2019-11-16 01:00:00 11.8 14 Noroeste 25 Norte 0 -- -- 42
2019-11-16 00:00:00 12.2 22 Noroeste 30 Noroeste 0 -- -- 48
2019-11-15 23:00:00 12.1 16 Norte 25 Norte 0 -- -- 43
2019-11-15 22:00:00 12.4 9 Noroeste 31 Noroeste 0 -- -- 45
2019-11-15 21:00:00 12.5 26 Noroeste 46 Oeste 0 -- -- 50
2019-11-15 20:00:00 13.7 28 Oeste 49 Noroeste 0 -- -- 48
2019-11-15 19:00:00 13.7 19 Oeste 37 Oeste 0 -- -- 57
2019-11-15 18:00:00 13.7 21 Oeste 41 Oeste 0 -- -- 57
2019-11-15 17:00:00 13.9 20 Oeste 40 Oeste 0 -- -- 59
2019-11-15 16:00:00 14 21 Oeste 35 Oeste 0 -- -- 59
2019-11-15 15:00:00 15.3 15 Oeste 33 Sudoeste 0 -- -- 55
2019-11-15 14:00:00 15.9 7 Sur 24 Sudeste 0 -- -- 50
2019-11-15 13:00:00 15.3 20 Este 29 Este 0 -- -- 47
2019-11-15 12:00:00 16.4 14 Este 22 Este 0 -- -- 48
2019-11-15 11:00:00 16.5 3 Sudoeste 12 Sudeste 0 -- -- 48
2019-11-15 10:00:00 16.5 3 Oeste 9 Oeste 0 -- -- 52
2019-11-15 09:00:00 14.3 5 Sur 9 Sudoeste 0 -- -- 58
2019-11-15 08:00:00 12.2 4 Norte 20 Oeste 0 -- -- 58
2019-11-15 07:00:00 12.7 10 Oeste 31 Noroeste 0 -- -- 54
2019-11-15 06:00:00 13.2 14 Noroeste 35 Noroeste 0 -- -- 48
2019-11-15 05:00:00 13.9 28 Oeste 60 Oeste 0 -- -- 65
2019-11-15 04:00:00 13.8 42 Oeste 60 Oeste 0 -- -- 64
2019-11-15 03:00:00 13.9 24 Oeste 48 Oeste 0 -- -- 64
2019-11-15 02:00:00 14.2 28 Oeste 47 Noroeste 0 -- -- 65
2019-11-15 01:00:00 14.7 19 Oeste 36 Oeste 0 -- -- 65
2019-11-15 00:00:00 15.4 13 Sur 62 Noroeste 0 -- -- 56